Página principal
METAR-TAF:

METAR-TAF

Aeroportos :

Aeroporto Internacional de Djibouti-Ambouli

Djibouti, Djibouti

latitude: 11-33N, longitude: 043-10E, altura: 49 m

Observação actual do tempo

O boletim foi feito há 10 horas e 55 minutos, às 16:00 UTC
Vento 1 kt de oeste
Temperatura 35°C
Humidade 53%
Pressão 1002 hPa
Visibilidade: 6000 m
Céu limpo
bruma

METAR: HDAM 231600Z 26001KT 6000 HZ SKC 35/24 Q1002

Hora: 05:55 (02:55 UTC)

Previsão

O boletim foi feito há 3 horas e 55 minutos, às 23:00 UTC
Previsão válida de 24 às 00 UTC a 24 às 24 UTC
Vento 10 kt de oeste
Visibilidade: 8000 m
Nuvens dispersasa uma altura de 13300 ft
bruma
Tornando-se
de 24 às 06 UTC a 24 às 12 UTC
Vento 10 kt de este
Visibilidade: 6000 m
Poucas nuvensa uma altura de 2300 ft
bruma
Tornando-se
de 24 às 15 UTC a 24 às 18 UTC
Vento 5 kt com direcção variável

TAF: HDAM 232300Z 2400/2424 26010KT 8000 HZ SCT133 BECMG 2406/2412 08010KT 6000 HZ FEW023 BECMG 2415/2418 VRB05KT

Observações e previsões do tempo de mais de 4000 aeroportos (mensagens METAR e TAF).

As estações disponíveis são os pontos amarelos e vermelhos sobre o mapa.

Mova o rato sobre o mapa para ver o nome da estação.

Depois clique no ponto para visualizar as observações e previsões meteorológicas.

Para alterar o mapa : clique nos botões verdes com uma cruz preta para aumentar o zoom; no botão verde com uma pitada de zoom; ou nas setas verdes para mapas adjacentes.


METAR-TAF: